sensor_id;sensor_type;location;lat;lon;timestamp;P1;durP1;ratioP1;P2;durP2;ratioP2
69744;SDS011;57015;50.120;-5.168;2023-05-01T00:02:07;5.25;;;1.30;;
69744;SDS011;57015;50.120;-5.168;2023-05-01T00:04:32;7.70;;;1.40;;
69744;SDS011;57015;50.120;-5.168;2023-05-01T00:06:58;5.55;;;1.30;;
69744;SDS011;57015;50.120;-5.168;2023-05-01T00:09:25;8.93;;;1.20;;
69744;SDS011;57015;50.120;-5.168;2023-05-01T00:11:51;7.80;;;1.47;;
69744;SDS011;57015;50.120;-5.168;2023-05-01T00:14:17;8.52;;;1.40;;
69744;SDS011;57015;50.120;-5.168;2023-05-01T00:16:42;3.58;;;1.08;;
69744;SDS011;57015;50.120;-5.168;2023-05-01T00:19:07;4.63;;;1.33;;
69744;SDS011;57015;50.120;-5.168;2023-05-01T00:21:33;4.77;;;1.67;;
69744;SDS011;57015;50.120;-5.168;2023-05-01T00:23:58;3.57;;;1.20;;
69744;SDS011;57015;50.120;-5.168;2023-05-01T00:26:24;10.60;;;1.65;;
69744;SDS011;57015;50.120;-5.168;2023-05-01T00:28:53;6.00;;;1.30;;
69744;SDS011;57015;50.120;-5.168;2023-05-01T00:31:19;7.60;;;1.10;;
69744;SDS011;57015;50.120;-5.168;2023-05-01T00:33:44;7.57;;;1.20;;
69744;SDS011;57015;50.120;-5.168;2023-05-01T00:36:10;4.53;;;0.90;;
69744;SDS011;57015;50.120;-5.168;2023-05-01T00:38:35;6.87;;;1.27;;
69744;SDS011;57015;50.120;-5.168;2023-05-01T00:41:01;7.95;;;2.00;;
69744;SDS011;57015;50.120;-5.168;2023-05-01T00:43:26;7.70;;;1.52;;
69744;SDS011;57015;50.120;-5.168;2023-05-01T00:45:51;8.33;;;1.20;;
69744;SDS011;57015;50.120;-5.168;2023-05-01T00:48:17;6.17;;;0.90;;
69744;SDS011;57015;50.120;-5.168;2023-05-01T00:50:43;4.90;;;1.07;;
69744;SDS011;57015;50.120;-5.168;2023-05-01T00:53:08;4.75;;;1.20;;
69744;SDS011;57015;50.120;-5.168;2023-05-01T00:55:35;5.68;;;1.25;;
69744;SDS011;57015;50.120;-5.168;2023-05-01T00:58:01;7.10;;;1.38;;
69744;SDS011;57015;50.120;-5.168;2023-05-01T01:00:27;8.03;;;1.57;;
69744;SDS011;57015;50.120;-5.168;2023-05-01T01:02:53;5.05;;;1.20;;
69744;SDS011;57015;50.120;-5.168;2023-05-01T01:05:18;4.73;;;1.10;;
69744;SDS011;57015;50.120;-5.168;2023-05-01T01:10:36;8.63;;;1.67;;
69744;SDS011;57015;50.120;-5.168;2023-05-01T01:13:11;4.90;;;0.90;;
69744;SDS011;57015;50.120;-5.168;2023-05-01T01:15:41;4.82;;;1.38;;
69744;SDS011;57015;50.120;-5.168;2023-05-01T01:21:29;3.40;;;1.05;;
69744;SDS011;57015;50.120;-5.168;2023-05-01T01:34:58;5.68;;;1.08;;
69744;SDS011;57015;50.120;-5.168;2023-05-01T01:40:09;5.30;;;1.07;;
69744;SDS011;57015;50.120;-5.168;2023-05-01T01:42:38;6.57;;;2.30;;
69744;SDS011;57015;50.120;-5.168;2023-05-01T01:45:08;5.43;;;0.90;;
69744;SDS011;57015;50.120;-5.168;2023-05-01T01:47:37;5.07;;;1.52;;
69744;SDS011;57015;50.120;-5.168;2023-05-01T01:50:05;4.25;;;1.00;;
69744;SDS011;57015;50.120;-5.168;2023-05-01T01:52:32;5.83;;;1.20;;
69744;SDS011;57015;50.120;-5.168;2023-05-01T01:55:01;5.13;;;1.10;;
69744;SDS011;57015;50.120;-5.168;2023-05-01T01:57:30;5.75;;;0.73;;
69744;SDS011;57015;50.120;-5.168;2023-05-01T01:59:56;4.80;;;1.17;;
69744;SDS011;57015;50.120;-5.168;2023-05-01T02:02:21;4.57;;;1.00;;
69744;SDS011;57015;50.120;-5.168;2023-05-01T02:04:47;7.23;;;1.20;;
69744;SDS011;57015;50.120;-5.168;2023-05-01T02:07:13;3.95;;;1.25;;
69744;SDS011;57015;50.120;-5.168;2023-05-01T02:09:39;5.45;;;1.23;;
69744;SDS011;57015;50.120;-5.168;2023-05-01T02:12:06;3.63;;;1.23;;
69744;SDS011;57015;50.120;-5.168;2023-05-01T02:14:32;6.27;;;1.33;;
69744;SDS011;57015;50.120;-5.168;2023-05-01T02:16:58;7.55;;;1.30;;
69744;SDS011;57015;50.120;-5.168;2023-05-01T02:19:23;7.87;;;1.30;;
69744;SDS011;57015;50.120;-5.168;2023-05-01T02:21:51;9.38;;;1.30;;
69744;SDS011;57015;50.120;-5.168;2023-05-01T02:24:19;4.25;;;1.05;;
69744;SDS011;57015;50.120;-5.168;2023-05-01T02:26:48;5.57;;;0.90;;
69744;SDS011;57015;50.120;-5.168;2023-05-01T02:29:18;4.10;;;1.17;;
69744;SDS011;57015;50.120;-5.168;2023-05-01T02:31:44;5.53;;;1.47;;
69744;SDS011;57015;50.120;-5.168;2023-05-01T02:34:09;6.47;;;1.07;;
69744;SDS011;57015;50.120;-5.168;2023-05-01T02:36:35;7.55;;;1.23;;
69744;SDS011;57015;50.120;-5.168;2023-05-01T02:39:00;7.33;;;1.40;;
69744;SDS011;57015;50.120;-5.168;2023-05-01T02:41:26;10.73;;;1.33;;
69744;SDS011;57015;50.120;-5.168;2023-05-01T02:43:53;6.28;;;1.38;;
69744;SDS011;57015;50.120;-5.168;2023-05-01T02:46:23;6.55;;;1.98;;
69744;SDS011;57015;50.120;-5.168;2023-05-01T02:48:49;7.65;;;1.13;;
69744;SDS011;57015;50.120;-5.168;2023-05-01T02:51:15;7.10;;;1.40;;
69744;SDS011;57015;50.120;-5.168;2023-05-01T02:53:42;5.93;;;1.17;;
69744;SDS011;57015;50.120;-5.168;2023-05-01T02:56:07;6.68;;;1.38;;
69744;SDS011;57015;50.120;-5.168;2023-05-01T02:58:33;5.83;;;1.50;;
69744;SDS011;57015;50.120;-5.168;2023-05-01T03:00:58;6.17;;;1.03;;
69744;SDS011;57015;50.120;-5.168;2023-05-01T03:03:24;4.57;;;0.97;;
69744;SDS011;57015;50.120;-5.168;2023-05-01T03:05:50;11.10;;;2.13;;
69744;SDS011;57015;50.120;-5.168;2023-05-01T03:08:16;8.02;;;1.35;;
69744;SDS011;57015;50.120;-5.168;2023-05-01T03:10:41;9.80;;;1.63;;
69744;SDS011;57015;50.120;-5.168;2023-05-01T03:13:07;5.23;;;1.03;;
69744;SDS011;57015;50.120;-5.168;2023-05-01T03:15:34;6.63;;;1.23;;
69744;SDS011;57015;50.120;-5.168;2023-05-01T03:17:59;7.17;;;1.27;;
69744;SDS011;57015;50.120;-5.168;2023-05-01T03:20:25;4.93;;;1.55;;
69744;SDS011;57015;50.120;-5.168;2023-05-01T03:22:50;8.40;;;1.67;;
69744;SDS011;57015;50.120;-5.168;2023-05-01T03:25:16;7.07;;;1.43;;
69744;SDS011;57015;50.120;-5.168;2023-05-01T03:27:41;10.97;;;1.70;;
69744;SDS011;57015;50.120;-5.168;2023-05-01T03:30:07;11.30;;;1.80;;
69744;SDS011;57015;50.120;-5.168;2023-05-01T03:32:34;10.43;;;1.55;;
69744;SDS011;57015;50.120;-5.168;2023-05-01T03:35:00;13.45;;;2.47;;
69744;SDS011;57015;50.120;-5.168;2023-05-01T03:37:25;9.63;;;1.50;;
69744;SDS011;57015;50.120;-5.168;2023-05-01T03:39:52;9.30;;;1.55;;
69744;SDS011;57015;50.120;-5.168;2023-05-01T03:42:17;10.97;;;2.40;;
69744;SDS011;57015;50.120;-5.168;2023-05-01T03:44:44;9.55;;;1.45;;
69744;SDS011;57015;50.120;-5.168;2023-05-01T03:47:09;5.10;;;1.20;;
69744;SDS011;57015;50.120;-5.168;2023-05-01T03:49:35;10.83;;;2.37;;
69744;SDS011;57015;50.120;-5.168;2023-05-01T03:52:00;9.23;;;1.65;;
69744;SDS011;57015;50.120;-5.168;2023-05-01T03:54:25;6.70;;;1.33;;
69744;SDS011;57015;50.120;-5.168;2023-05-01T03:56:51;10.13;;;1.33;;
69744;SDS011;57015;50.120;-5.168;2023-05-01T03:59:17;9.13;;;1.60;;
69744;SDS011;57015;50.120;-5.168;2023-05-01T04:01:42;3.72;;;0.90;;
69744;SDS011;57015;50.120;-5.168;2023-05-01T04:04:08;9.90;;;1.73;;
69744;SDS011;57015;50.120;-5.168;2023-05-01T04:06:33;7.10;;;1.20;;
69744;SDS011;57015;50.120;-5.168;2023-05-01T04:09:00;6.60;;;1.15;;
69744;SDS011;57015;50.120;-5.168;2023-05-01T04:11:26;13.55;;;2.17;;
69744;SDS011;57015;50.120;-5.168;2023-05-01T04:13:51;8.57;;;1.63;;
69744;SDS011;57015;50.120;-5.168;2023-05-01T04:16:16;9.20;;;1.60;;
69744;SDS011;57015;50.120;-5.168;2023-05-01T04:18:42;9.50;;;1.70;;
69744;SDS011;57015;50.120;-5.168;2023-05-01T04:21:07;6.45;;;1.38;;
69744;SDS011;57015;50.120;-5.168;2023-05-01T04:23:33;7.10;;;1.40;;
69744;SDS011;57015;50.120;-5.168;2023-05-01T04:25:58;8.73;;;1.87;;
69744;SDS011;57015;50.120;-5.168;2023-05-01T04:28:23;10.53;;;2.03;;
69744;SDS011;57015;50.120;-5.168;2023-05-01T04:30:49;7.47;;;1.50;;
69744;SDS011;57015;50.120;-5.168;2023-05-01T04:33:14;7.55;;;1.60;;
69744;SDS011;57015;50.120;-5.168;2023-05-01T04:35:40;10.77;;;1.80;;
69744;SDS011;57015;50.120;-5.168;2023-05-01T04:38:06;5.90;;;1.47;;
69744;SDS011;57015;50.120;-5.168;2023-05-01T04:40:32;4.85;;;1.20;;
69744;SDS011;57015;50.120;-5.168;2023-05-01T04:42:57;6.13;;;1.70;;
69744;SDS011;57015;50.120;-5.168;2023-05-01T04:45:22;7.33;;;1.67;;
69744;SDS011;57015;50.120;-5.168;2023-05-01T04:47:48;7.00;;;1.40;;
69744;SDS011;57015;50.120;-5.168;2023-05-01T04:50:13;10.57;;;1.77;;
69744;SDS011;57015;50.120;-5.168;2023-05-01T04:52:39;8.60;;;1.50;;
69744;SDS011;57015;50.120;-5.168;2023-05-01T04:55:04;11.77;;;1.67;;
69744;SDS011;57015;50.120;-5.168;2023-05-01T04:57:30;8.18;;;1.55;;
69744;SDS011;57015;50.120;-5.168;2023-05-01T04:59:55;8.77;;;1.80;;
69744;SDS011;57015;50.120;-5.168;2023-05-01T05:02:21;7.73;;;1.50;;
69744;SDS011;57015;50.120;-5.168;2023-05-01T05:04:46;9.20;;;1.17;;
69744;SDS011;57015;50.120;-5.168;2023-05-01T05:07:11;8.80;;;1.30;;
69744;SDS011;57015;50.120;-5.168;2023-05-01T05:09:37;8.80;;;1.58;;
69744;SDS011;57015;50.120;-5.168;2023-05-01T05:12:02;10.43;;;1.33;;
69744;SDS011;57015;50.120;-5.168;2023-05-01T05:14:28;5.27;;;1.47;;
69744;SDS011;57015;50.120;-5.168;2023-05-01T05:16:54;5.65;;;1.25;;
69744;SDS011;57015;50.120;-5.168;2023-05-01T05:19:20;10.77;;;1.50;;
69744;SDS011;57015;50.120;-5.168;2023-05-01T05:21:45;8.45;;;1.60;;
69744;SDS011;57015;50.120;-5.168;2023-05-01T05:24:11;5.40;;;1.30;;
69744;SDS011;57015;50.120;-5.168;2023-05-01T05:26:36;8.43;;;1.40;;
69744;SDS011;57015;50.120;-5.168;2023-05-01T05:29:02;10.40;;;1.60;;
69744;SDS011;57015;50.120;-5.168;2023-05-01T05:31:28;5.15;;;1.08;;
69744;SDS011;57015;50.120;-5.168;2023-05-01T05:33:53;8.63;;;1.20;;
69744;SDS011;57015;50.120;-5.168;2023-05-01T05:36:18;7.00;;;1.47;;
69744;SDS011;57015;50.120;-5.168;2023-05-01T05:38:44;7.57;;;1.70;;
69744;SDS011;57015;50.120;-5.168;2023-05-01T05:41:09;11.82;;;1.50;;
69744;SDS011;57015;50.120;-5.168;2023-05-01T05:43:35;10.27;;;2.47;;
69744;SDS011;57015;50.120;-5.168;2023-05-01T05:46:01;9.30;;;1.42;;
69744;SDS011;57015;50.120;-5.168;2023-05-01T05:48:26;10.30;;;1.90;;
69744;SDS011;57015;50.120;-5.168;2023-05-01T05:50:52;5.00;;;1.17;;
69744;SDS011;57015;50.120;-5.168;2023-05-01T05:53:18;11.07;;;1.70;;
69744;SDS011;57015;50.120;-5.168;2023-05-01T05:55:45;4.63;;;1.30;;
69744;SDS011;57015;50.120;-5.168;2023-05-01T05:58:11;7.18;;;1.52;;
69744;SDS011;57015;50.120;-5.168;2023-05-01T06:00:38;7.60;;;1.48;;
69744;SDS011;57015;50.120;-5.168;2023-05-01T06:03:03;9.90;;;1.63;;
69744;SDS011;57015;50.120;-5.168;2023-05-01T06:05:29;6.95;;;1.80;;
69744;SDS011;57015;50.120;-5.168;2023-05-01T06:07:54;7.45;;;1.40;;
69744;SDS011;57015;50.120;-5.168;2023-05-01T06:10:20;5.37;;;1.70;;
69744;SDS011;57015;50.120;-5.168;2023-05-01T06:12:45;7.97;;;1.37;;
69744;SDS011;57015;50.120;-5.168;2023-05-01T06:15:12;5.50;;;1.25;;
69744;SDS011;57015;50.120;-5.168;2023-05-01T06:17:41;9.20;;;1.55;;
69744;SDS011;57015;50.120;-5.168;2023-05-01T06:20:07;13.03;;;2.00;;
69744;SDS011;57015;50.120;-5.168;2023-05-01T06:22:33;6.75;;;1.50;;
69744;SDS011;57015;50.120;-5.168;2023-05-01T06:24:58;5.73;;;1.73;;
69744;SDS011;57015;50.120;-5.168;2023-05-01T06:27:23;8.65;;;1.88;;
69744;SDS011;57015;50.120;-5.168;2023-05-01T06:29:49;10.97;;;1.57;;
69744;SDS011;57015;50.120;-5.168;2023-05-01T06:32:15;9.60;;;2.10;;
69744;SDS011;57015;50.120;-5.168;2023-05-01T06:34:40;8.90;;;1.60;;
69744;SDS011;57015;50.120;-5.168;2023-05-01T06:37:06;10.73;;;1.97;;
69744;SDS011;57015;50.120;-5.168;2023-05-01T06:39:31;8.00;;;1.37;;
69744;SDS011;57015;50.120;-5.168;2023-05-01T06:41:57;10.43;;;1.67;;
69744;SDS011;57015;50.120;-5.168;2023-05-01T06:44:23;8.97;;;1.57;;
69744;SDS011;57015;50.120;-5.168;2023-05-01T06:46:48;9.43;;;1.80;;
69744;SDS011;57015;50.120;-5.168;2023-05-01T06:49:13;9.83;;;1.87;;
69744;SDS011;57015;50.120;-5.168;2023-05-01T06:51:39;10.65;;;1.95;;
69744;SDS011;57015;50.120;-5.168;2023-05-01T06:54:04;5.43;;;1.17;;
69744;SDS011;57015;50.120;-5.168;2023-05-01T06:56:29;8.80;;;1.70;;
69744;SDS011;57015;50.120;-5.168;2023-05-01T06:58:56;14.07;;;1.80;;
69744;SDS011;57015;50.120;-5.168;2023-05-01T07:01:21;8.13;;;2.03;;
69744;SDS011;57015;50.120;-5.168;2023-05-01T07:03:47;11.63;;;1.90;;
69744;SDS011;57015;50.120;-5.168;2023-05-01T07:06:12;14.13;;;1.93;;
69744;SDS011;57015;50.120;-5.168;2023-05-01T07:08:38;11.07;;;2.07;;
69744;SDS011;57015;50.120;-5.168;2023-05-01T07:11:03;12.20;;;1.90;;
69744;SDS011;57015;50.120;-5.168;2023-05-01T07:13:29;8.52;;;1.85;;
69744;SDS011;57015;50.120;-5.168;2023-05-01T07:15:54;10.13;;;1.60;;
69744;SDS011;57015;50.120;-5.168;2023-05-01T07:18:19;9.83;;;2.13;;
69744;SDS011;57015;50.120;-5.168;2023-05-01T07:20:45;8.30;;;2.17;;
69744;SDS011;57015;50.120;-5.168;2023-05-01T07:23:10;7.72;;;1.45;;
69744;SDS011;57015;50.120;-5.168;2023-05-01T07:25:36;10.70;;;1.60;;
69744;SDS011;57015;50.120;-5.168;2023-05-01T07:28:02;6.30;;;1.57;;
69744;SDS011;57015;50.120;-5.168;2023-05-01T07:30:32;9.07;;;1.70;;
69744;SDS011;57015;50.120;-5.168;2023-05-01T07:32:57;8.95;;;1.73;;
69744;SDS011;57015;50.120;-5.168;2023-05-01T07:35:23;5.80;;;1.70;;
69744;SDS011;57015;50.120;-5.168;2023-05-01T07:37:49;15.80;;;1.70;;
69744;SDS011;57015;50.120;-5.168;2023-05-01T07:40:16;5.05;;;1.20;;
69744;SDS011;57015;50.120;-5.168;2023-05-01T07:42:41;7.63;;;1.67;;
69744;SDS011;57015;50.120;-5.168;2023-05-01T07:45:07;8.38;;;2.05;;
69744;SDS011;57015;50.120;-5.168;2023-05-01T07:47:33;6.17;;;1.60;;
69744;SDS011;57015;50.120;-5.168;2023-05-01T07:49:58;7.40;;;1.27;;
69744;SDS011;57015;50.120;-5.168;2023-05-01T07:52:24;12.20;;;1.93;;
69744;SDS011;57015;50.120;-5.168;2023-05-01T07:54:50;7.72;;;1.40;;
69744;SDS011;57015;50.120;-5.168;2023-05-01T07:57:16;10.10;;;1.23;;
69744;SDS011;57015;50.120;-5.168;2023-05-01T07:59:41;8.90;;;1.53;;
69744;SDS011;57015;50.120;-5.168;2023-05-01T08:02:06;7.90;;;1.20;;
69744;SDS011;57015;50.120;-5.168;2023-05-01T08:04:32;5.17;;;0.80;;
69744;SDS011;57015;50.120;-5.168;2023-05-01T08:06:57;4.35;;;0.98;;
69744;SDS011;57015;50.120;-5.168;2023-05-01T08:09:22;7.15;;;0.77;;
69744;SDS011;57015;50.120;-5.168;2023-05-01T08:11:48;5.47;;;1.37;;
69744;SDS011;57015;50.120;-5.168;2023-05-01T08:14:13;6.63;;;1.40;;
69744;SDS011;57015;50.120;-5.168;2023-05-01T08:16:41;6.03;;;1.10;;
69744;SDS011;57015;50.120;-5.168;2023-05-01T08:19:07;7.03;;;0.67;;
69744;SDS011;57015;50.120;-5.168;2023-05-01T08:21:32;6.33;;;1.30;;
69744;SDS011;57015;50.120;-5.168;2023-05-01T08:23:58;7.15;;;2.80;;
69744;SDS011;57015;50.120;-5.168;2023-05-01T08:26:23;5.67;;;2.20;;
69744;SDS011;57015;50.120;-5.168;2023-05-01T08:28:48;5.83;;;2.43;;
69744;SDS011;57015;50.120;-5.168;2023-05-01T08:31:14;7.85;;;2.30;;
69744;SDS011;57015;50.120;-5.168;2023-05-01T08:33:40;9.47;;;2.30;;
69744;SDS011;57015;50.120;-5.168;2023-05-01T08:36:06;5.28;;;2.05;;
69744;SDS011;57015;50.120;-5.168;2023-05-01T08:38:34;7.88;;;1.75;;
69744;SDS011;57015;50.120;-5.168;2023-05-01T08:40:59;7.25;;;1.30;;
69744;SDS011;57015;50.120;-5.168;2023-05-01T08:43:27;7.68;;;1.00;;
69744;SDS011;57015;50.120;-5.168;2023-05-01T08:45:54;5.43;;;1.00;;
69744;SDS011;57015;50.120;-5.168;2023-05-01T08:48:20;6.22;;;1.05;;
69744;SDS011;57015;50.120;-5.168;2023-05-01T08:50:46;6.13;;;1.00;;
69744;SDS011;57015;50.120;-5.168;2023-05-01T08:53:14;7.55;;;1.00;;
69744;SDS011;57015;50.120;-5.168;2023-05-01T08:55:42;7.67;;;0.80;;
69744;SDS011;57015;50.120;-5.168;2023-05-01T08:58:08;6.63;;;1.08;;
69744;SDS011;57015;50.120;-5.168;2023-05-01T09:00:36;5.72;;;0.90;;
69744;SDS011;57015;50.120;-5.168;2023-05-01T09:03:02;5.75;;;1.02;;
69744;SDS011;57015;50.120;-5.168;2023-05-01T09:05:30;8.95;;;0.90;;
69744;SDS011;57015;50.120;-5.168;2023-05-01T09:07:56;7.53;;;1.13;;
69744;SDS011;57015;50.120;-5.168;2023-05-01T09:10:22;6.38;;;0.55;;
69744;SDS011;57015;50.120;-5.168;2023-05-01T09:12:51;5.40;;;1.02;;
69744;SDS011;57015;50.120;-5.168;2023-05-01T09:15:20;4.40;;;1.00;;
69744;SDS011;57015;50.120;-5.168;2023-05-01T09:17:45;5.30;;;0.80;;
69744;SDS011;57015;50.120;-5.168;2023-05-01T09:20:11;7.70;;;0.90;;
69744;SDS011;57015;50.120;-5.168;2023-05-01T09:22:37;6.67;;;1.10;;
69744;SDS011;57015;50.120;-5.168;2023-05-01T09:25:02;7.50;;;1.73;;
69744;SDS011;57015;50.120;-5.168;2023-05-01T09:27:37;8.05;;;3.20;;
69744;SDS011;57015;50.120;-5.168;2023-05-01T09:30:06;7.53;;;3.20;;
69744;SDS011;57015;50.120;-5.168;2023-05-01T09:32:33;12.00;;;2.92;;
69744;SDS011;57015;50.120;-5.168;2023-05-01T09:35:08;7.60;;;1.50;;
69744;SDS011;57015;50.120;-5.168;2023-05-01T09:37:35;6.83;;;0.50;;
69744;SDS011;57015;50.120;-5.168;2023-05-01T09:42:30;3.50;;;0.43;;
69744;SDS011;57015;50.120;-5.168;2023-05-01T09:44:57;2.45;;;0.45;;
69744;SDS011;57015;50.120;-5.168;2023-05-01T09:47:23;2.53;;;0.60;;
69744;SDS011;57015;50.120;-5.168;2023-05-01T09:49:48;2.77;;;0.43;;
69744;SDS011;57015;50.120;-5.168;2023-05-01T09:52:14;3.23;;;0.40;;
69744;SDS011;57015;50.120;-5.168;2023-05-01T09:54:39;5.22;;;0.63;;
69744;SDS011;57015;50.120;-5.168;2023-05-01T09:57:05;4.90;;;1.03;;
69744;SDS011;57015;50.120;-5.168;2023-05-01T09:59:31;3.80;;;0.50;;
69744;SDS011;57015;50.120;-5.168;2023-05-01T10:01:58;3.50;;;0.60;;
69744;SDS011;57015;50.120;-5.168;2023-05-01T10:04:33;2.95;;;0.55;;
69744;SDS011;57015;50.120;-5.168;2023-05-01T10:07:00;5.72;;;0.63;;
69744;SDS011;57015;50.120;-5.168;2023-05-01T10:09:36;4.07;;;1.20;;
69744;SDS011;57015;50.120;-5.168;2023-05-01T10:12:01;6.25;;;1.30;;
69744;SDS011;57015;50.120;-5.168;2023-05-01T10:14:27;9.37;;;1.83;;
69744;SDS011;57015;50.120;-5.168;2023-05-01T10:16:54;3.33;;;1.30;;
69744;SDS011;57015;50.120;-5.168;2023-05-01T10:19:21;4.32;;;0.75;;
69744;SDS011;57015;50.120;-5.168;2023-05-01T10:21:47;3.17;;;0.50;;
69744;SDS011;57015;50.120;-5.168;2023-05-01T10:24:12;3.17;;;0.57;;
69744;SDS011;57015;50.120;-5.168;2023-05-01T10:26:40;4.47;;;0.50;;
69744;SDS011;57015;50.120;-5.168;2023-05-01T10:29:07;5.60;;;0.65;;
69744;SDS011;57015;50.120;-5.168;2023-05-01T10:31:32;3.13;;;0.60;;
69744;SDS011;57015;50.120;-5.168;2023-05-01T10:33:58;5.00;;;1.00;;
69744;SDS011;57015;50.120;-5.168;2023-05-01T10:36:31;3.53;;;0.70;;
69744;SDS011;57015;50.120;-5.168;2023-05-01T10:39:28;3.22;;;0.70;;
69744;SDS011;57015;50.120;-5.168;2023-05-01T10:42:00;3.93;;;0.60;;
69744;SDS011;57015;50.120;-5.168;2023-05-01T10:44:29;1.92;;;0.45;;
69744;SDS011;57015;50.120;-5.168;2023-05-01T10:46:55;2.92;;;0.50;;
69744;SDS011;57015;50.120;-5.168;2023-05-01T10:49:20;2.57;;;1.30;;
69744;SDS011;57015;50.120;-5.168;2023-05-01T10:52:04;3.05;;;0.60;;
69744;SDS011;57015;50.120;-5.168;2023-05-01T10:54:30;2.60;;;1.00;;
69744;SDS011;57015;50.120;-5.168;2023-05-01T10:56:57;4.43;;;1.25;;
69744;SDS011;57015;50.120;-5.168;2023-05-01T10:59:25;7.97;;;1.30;;
69744;SDS011;57015;50.120;-5.168;2023-05-01T11:01:51;3.35;;;0.90;;
69744;SDS011;57015;50.120;-5.168;2023-05-01T11:09:36;3.85;;;0.60;;
69744;SDS011;57015;50.120;-5.168;2023-05-01T11:12:03;3.83;;;0.60;;
69744;SDS011;57015;50.120;-5.168;2023-05-01T11:20:05;4.63;;;0.70;;
69744;SDS011;57015;50.120;-5.168;2023-05-01T11:22:32;4.97;;;1.20;;
69744;SDS011;57015;50.120;-5.168;2023-05-01T11:24:57;4.53;;;0.80;;
69744;SDS011;57015;50.120;-5.168;2023-05-01T11:27:23;3.30;;;0.70;;
69744;SDS011;57015;50.120;-5.168;2023-05-01T11:29:49;4.22;;;0.50;;
69744;SDS011;57015;50.120;-5.168;2023-05-01T11:32:18;3.10;;;0.60;;
69744;SDS011;57015;50.120;-5.168;2023-05-01T11:34:48;4.50;;;0.60;;
69744;SDS011;57015;50.120;-5.168;2023-05-01T11:37:15;4.20;;;1.07;;
69744;SDS011;57015;50.120;-5.168;2023-05-01T11:39:50;4.38;;;0.68;;
69744;SDS011;57015;50.120;-5.168;2023-05-01T11:42:16;4.18;;;0.60;;
69744;SDS011;57015;50.120;-5.168;2023-05-01T11:45:03;5.77;;;0.50;;
69744;SDS011;57015;50.120;-5.168;2023-05-01T11:47:33;5.80;;;0.73;;
69744;SDS011;57015;50.120;-5.168;2023-05-01T11:49:59;2.60;;;0.60;;
69744;SDS011;57015;50.120;-5.168;2023-05-01T11:52:25;2.00;;;0.40;;
69744;SDS011;57015;50.120;-5.168;2023-05-01T11:54:51;2.60;;;0.55;;
69744;SDS011;57015;50.120;-5.168;2023-05-01T11:57:17;3.63;;;0.40;;
69744;SDS011;57015;50.120;-5.168;2023-05-01T11:59:45;1.45;;;0.40;;
69744;SDS011;57015;50.120;-5.168;2023-05-01T12:02:18;2.53;;;0.47;;
69744;SDS011;57015;50.120;-5.168;2023-05-01T12:04:44;1.45;;;0.30;;
69744;SDS011;57015;50.120;-5.168;2023-05-01T12:07:18;4.32;;;0.50;;
69744;SDS011;57015;50.120;-5.168;2023-05-01T12:09:45;2.23;;;0.40;;
69744;SDS011;57015;50.120;-5.168;2023-05-01T12:12:10;1.77;;;0.35;;
69744;SDS011;57015;50.120;-5.168;2023-05-01T12:14:36;1.30;;;0.30;;
69744;SDS011;57015;50.120;-5.168;2023-05-01T12:17:01;3.37;;;0.70;;
69744;SDS011;57015;50.120;-5.168;2023-05-01T12:19:28;3.75;;;0.60;;
69744;SDS011;57015;50.120;-5.168;2023-05-01T12:22:05;2.50;;;0.40;;
69744;SDS011;57015;50.120;-5.168;2023-05-01T12:24:31;1.98;;;0.40;;
69744;SDS011;57015;50.120;-5.168;2023-05-01T12:27:00;3.03;;;0.80;;
69744;SDS011;57015;50.120;-5.168;2023-05-01T12:29:25;3.28;;;0.60;;
69744;SDS011;57015;50.120;-5.168;2023-05-01T12:32:03;3.47;;;0.60;;
69744;SDS011;57015;50.120;-5.168;2023-05-01T12:34:29;1.80;;;0.40;;
69744;SDS011;57015;50.120;-5.168;2023-05-01T12:36:57;3.03;;;0.70;;
69744;SDS011;57015;50.120;-5.168;2023-05-01T12:39:23;3.40;;;0.40;;
69744;SDS011;57015;50.120;-5.168;2023-05-01T12:41:49;3.10;;;0.50;;
69744;SDS011;57015;50.120;-5.168;2023-05-01T12:46:44;1.88;;;0.70;;
69744;SDS011;57015;50.120;-5.168;2023-05-01T12:49:18;3.60;;;0.55;;
69744;SDS011;57015;50.120;-5.168;2023-05-01T12:51:47;2.67;;;0.45;;
69744;SDS011;57015;50.120;-5.168;2023-05-01T12:54:19;3.00;;;0.30;;
69744;SDS011;57015;50.120;-5.168;2023-05-01T12:56:45;1.30;;;0.35;;
69744;SDS011;57015;50.120;-5.168;2023-05-01T13:01:46;6.57;;;0.57;;
69744;SDS011;57015;50.120;-5.168;2023-05-01T13:04:11;1.47;;;0.40;;
69744;SDS011;57015;50.120;-5.168;2023-05-01T13:06:37;5.47;;;0.55;;
69744;SDS011;57015;50.120;-5.168;2023-05-01T13:09:08;2.93;;;0.60;;
69744;SDS011;57015;50.120;-5.168;2023-05-01T13:11:34;2.25;;;0.45;;
69744;SDS011;57015;50.120;-5.168;2023-05-01T13:14:05;2.47;;;0.70;;
69744;SDS011;57015;50.120;-5.168;2023-05-01T13:16:31;2.45;;;0.57;;
69744;SDS011;57015;50.120;-5.168;2023-05-01T13:18:57;3.07;;;0.50;;
69744;SDS011;57015;50.120;-5.168;2023-05-01T13:21:22;1.87;;;0.40;;
69744;SDS011;57015;50.120;-5.168;2023-05-01T13:26:25;3.80;;;0.70;;
69744;SDS011;57015;50.120;-5.168;2023-05-01T13:28:55;2.13;;;0.50;;
69744;SDS011;57015;50.120;-5.168;2023-05-01T13:31:21;2.03;;;0.60;;
69744;SDS011;57015;50.120;-5.168;2023-05-01T13:33:47;2.13;;;0.45;;
69744;SDS011;57015;50.120;-5.168;2023-05-01T13:36:15;4.03;;;0.75;;
69744;SDS011;57015;50.120;-5.168;2023-05-01T13:38:47;2.55;;;0.60;;
69744;SDS011;57015;50.120;-5.168;2023-05-01T13:41:17;4.13;;;0.95;;
69744;SDS011;57015;50.120;-5.168;2023-05-01T13:43:45;1.90;;;0.38;;
69744;SDS011;57015;50.120;-5.168;2023-05-01T13:46:11;2.35;;;0.40;;
69744;SDS011;57015;50.120;-5.168;2023-05-01T13:48:38;4.40;;;0.60;;
69744;SDS011;57015;50.120;-5.168;2023-05-01T13:51:05;2.13;;;0.60;;
69744;SDS011;57015;50.120;-5.168;2023-05-01T13:53:31;2.63;;;0.90;;
69744;SDS011;57015;50.120;-5.168;2023-05-01T13:55:56;1.85;;;0.57;;
69744;SDS011;57015;50.120;-5.168;2023-05-01T13:58:22;2.25;;;0.50;;
69744;SDS011;57015;50.120;-5.168;2023-05-01T14:00:48;2.53;;;0.70;;
69744;SDS011;57015;50.120;-5.168;2023-05-01T14:03:14;3.33;;;0.88;;
69744;SDS011;57015;50.120;-5.168;2023-05-01T14:05:40;1.73;;;0.40;;
69744;SDS011;57015;50.120;-5.168;2023-05-01T14:08:07;1.38;;;0.40;;
69744;SDS011;57015;50.120;-5.168;2023-05-01T14:10:32;2.08;;;0.43;;
69744;SDS011;57015;50.120;-5.168;2023-05-01T14:12:58;3.40;;;0.65;;
69744;SDS011;57015;50.120;-5.168;2023-05-01T14:15:23;1.45;;;0.30;;
69744;SDS011;57015;50.120;-5.168;2023-05-01T14:17:49;2.40;;;0.40;;
69744;SDS011;57015;50.120;-5.168;2023-05-01T14:20:15;1.00;;;0.20;;
69744;SDS011;57015;50.120;-5.168;2023-05-01T14:22:42;2.43;;;0.50;;
69744;SDS011;57015;50.120;-5.168;2023-05-01T14:25:28;0.95;;;0.28;;
69744;SDS011;57015;50.120;-5.168;2023-05-01T14:27:55;4.40;;;0.60;;
69744;SDS011;57015;50.120;-5.168;2023-05-01T14:32:51;3.22;;;0.50;;
69744;SDS011;57015;50.120;-5.168;2023-05-01T14:35:17;2.72;;;0.40;;
69744;SDS011;57015;50.120;-5.168;2023-05-01T14:37:44;4.90;;;0.70;;
69744;SDS011;57015;50.120;-5.168;2023-05-01T14:40:10;2.93;;;0.40;;
69744;SDS011;57015;50.120;-5.168;2023-05-01T14:42:40;1.70;;;0.45;;
69744;SDS011;57015;50.120;-5.168;2023-05-01T14:45:08;1.95;;;0.35;;
69744;SDS011;57015;50.120;-5.168;2023-05-01T14:47:35;2.55;;;0.47;;
69744;SDS011;57015;50.120;-5.168;2023-05-01T14:50:03;5.10;;;1.13;;
69744;SDS011;57015;50.120;-5.168;2023-05-01T14:52:30;1.40;;;0.40;;
69744;SDS011;57015;50.120;-5.168;2023-05-01T14:54:55;3.25;;;0.45;;
69744;SDS011;57015;50.120;-5.168;2023-05-01T14:57:21;1.97;;;0.50;;
69744;SDS011;57015;50.120;-5.168;2023-05-01T14:59:46;2.13;;;0.37;;
69744;SDS011;57015;50.120;-5.168;2023-05-01T15:02:11;2.53;;;0.60;;
69744;SDS011;57015;50.120;-5.168;2023-05-01T15:04:37;3.50;;;0.80;;
69744;SDS011;57015;50.120;-5.168;2023-05-01T15:07:02;1.70;;;0.60;;
69744;SDS011;57015;50.120;-5.168;2023-05-01T15:09:28;2.05;;;0.52;;
69744;SDS011;57015;50.120;-5.168;2023-05-01T15:11:53;3.93;;;0.40;;
69744;SDS011;57015;50.120;-5.168;2023-05-01T15:14:18;2.57;;;0.50;;